Time;durP1;ratioP1;P1;durP2;ratioP2;P2;SDS_P1;SDS_P2;PMS_P1;PMS_P2;Temp;Humidity;BMP_temperature;BMP_pressure;BME280_temperature;BME280_humidity;BME280_pressure;Samples;Min_cycle;Max_cycle;Signal;HPM_P1;HPM_P2
2023/10/16 00:00:47;;;;;;;0.70;0.70;;;10.00;99.90;;;;;;7393646;19;20163;-73
2023/10/16 00:03:14;;;;;;;0.60;0.60;;;10.00;99.90;;;;;;7393162;19;20143;-73
2023/10/16 00:05:45;;;;;;;0.40;0.40;;;9.90;99.90;;;;;;7393003;19;20150;-73
2023/10/16 00:08:12;;;;;;;0.87;0.50;;;9.90;99.90;;;;;;7393153;19;20206;-72
2023/10/16 00:10:38;;;;;;;0.40;0.40;;;9.90;99.90;;;;;;7391881;19;20135;-73
2023/10/16 00:13:07;;;;;;;2.17;1.00;;;9.70;99.90;;;;;;7392043;19;20141;-74
2023/10/16 00:15:40;;;;;;;1.10;0.60;;;9.70;99.90;;;;;;7392449;19;20137;-74
2023/10/16 00:18:16;;;;;;;0.50;0.50;;;9.70;99.90;;;;;;7390288;19;20134;-72
2023/10/16 00:20:42;;;;;;;0.40;0.40;;;9.70;99.90;;;;;;7394009;19;20131;-72
2023/10/16 00:23:11;;;;;;;0.70;0.70;;;9.10;99.90;;;;;;7394889;19;20213;-73
2023/10/16 00:25:38;;;;;;;0.80;0.63;;;9.00;99.90;;;;;;7392748;19;20145;-73
2023/10/16 00:28:09;;;;;;;1.00;0.67;;;8.60;99.90;;;;;;7392601;19;20138;-73
2023/10/16 00:30:38;;;;;;;0.40;0.40;;;8.50;99.90;;;;;;7394778;19;20134;-73
2023/10/16 00:33:08;;;;;;;0.50;0.50;;;8.70;99.90;;;;;;7392828;19;20620;-73
2023/10/16 00:35:34;;;;;;;0.80;0.80;;;8.80;99.90;;;;;;7393501;19;20174;-73
2023/10/16 00:38:03;;;;;;;0.60;0.60;;;8.80;99.90;;;;;;7392654;19;20134;-73
2023/10/16 00:40:31;;;;;;;0.60;0.60;;;8.90;99.90;;;;;;7395421;19;20139;-74
2023/10/16 00:43:06;;;;;;;0.70;0.47;;;9.20;99.90;;;;;;7392628;19;20181;-73
2023/10/16 00:46:10;;;;;;;0.47;0.47;;;9.40;99.90;;;;;;7390884;19;20149;-73
2023/10/16 00:48:37;;;;;;;0.43;0.43;;;9.50;99.90;;;;;;7389024;19;20169;-73
2023/10/16 00:51:10;;;;;;;1.33;0.90;;;9.30;99.90;;;;;;7392534;19;20580;-73
2023/10/16 00:53:37;;;;;;;0.50;0.50;;;9.40;99.90;;;;;;7389908;19;20153;-73
2023/10/16 00:56:08;;;;;;;0.40;0.40;;;9.50;99.90;;;;;;7391583;19;21035;-72
2023/10/16 00:58:38;;;;;;;0.87;0.37;;;9.50;99.90;;;;;;7390780;19;20467;-74
2023/10/16 01:01:08;;;;;;;0.47;0.47;;;9.50;99.90;;;;;;7393652;19;20143;-73
2023/10/16 01:03:36;;;;;;;0.30;0.30;;;9.10;99.90;;;;;;7389447;19;20147;-72
2023/10/16 01:06:03;;;;;;;1.47;0.50;;;9.10;99.90;;;;;;7391215;19;20147;-73
2023/10/16 01:08:29;;;;;;;1.83;0.90;;;9.30;99.90;;;;;;7391792;19;20134;-73
2023/10/16 01:10:57;;;;;;;0.60;0.47;;;9.30;99.90;;;;;;7393379;19;20441;-73
2023/10/16 01:13:28;;;;;;;0.53;0.53;;;9.40;99.90;;;;;;7392679;19;20386;-74
2023/10/16 01:15:56;;;;;;;0.60;0.57;;;9.40;99.90;;;;;;7391188;19;20142;-73
2023/10/16 01:18:23;;;;;;;0.43;0.43;;;9.40;99.90;;;;;;7391071;19;20213;-72
2023/10/16 01:20:50;;;;;;;1.23;1.00;;;9.50;99.90;;;;;;7392721;19;20565;-73
2023/10/16 01:23:19;;;;;;;0.40;0.40;;;9.50;99.90;;;;;;7387006;19;20150;-73
2023/10/16 01:25:46;;;;;;;1.03;0.67;;;9.50;99.90;;;;;;7391306;19;20154;-73
2023/10/16 01:28:15;;;;;;;0.70;0.60;;;9.50;99.90;;;;;;7391811;19;20139;-74
2023/10/16 01:30:45;;;;;;;1.17;0.67;;;9.50;99.90;;;;;;7390108;19;20773;-73
2023/10/16 01:33:13;;;;;;;0.70;0.70;;;9.50;99.90;;;;;;7390623;19;20170;-73
2023/10/16 01:35:39;;;;;;;0.80;0.80;;;9.50;99.90;;;;;;7389652;19;20135;-72
2023/10/16 01:38:20;;;;;;;0.50;0.50;;;9.40;99.90;;;;;;7392056;19;20157;-73
2023/10/16 01:43:33;;;;;;;0.77;0.70;;;9.30;99.90;;;;;;7390718;19;20171;-73
2023/10/16 01:46:12;;;;;;;0.43;0.43;;;9.30;99.90;;;;;;7389093;19;20145;-73
2023/10/16 01:48:44;;;;;;;0.57;0.30;;;9.30;99.90;;;;;;7390113;19;20194;-73
2023/10/16 01:51:11;;;;;;;1.10;0.67;;;9.30;99.90;;;;;;7392948;19;20138;-74
2023/10/16 01:53:39;;;;;;;0.60;0.60;;;9.30;99.90;;;;;;7390779;19;20466;-73
2023/10/16 01:56:12;;;;;;;2.23;0.80;;;9.30;99.90;;;;;;7390911;19;20713;-72
2023/10/16 01:58:46;;;;;;;0.70;0.70;;;9.20;99.90;;;;;;7390413;19;20509;-72
2023/10/16 02:01:16;;;;;;;1.00;0.90;;;9.20;99.90;;;;;;7392892;19;20146;-74
2023/10/16 02:03:44;;;;;;;0.93;0.70;;;9.10;99.90;;;;;;7388860;19;20119;-73
2023/10/16 02:06:11;;;;;;;1.10;0.80;;;9.20;99.90;;;;;;7388407;19;20250;-73
2023/10/16 02:08:41;;;;;;;0.63;0.60;;;9.20;99.90;;;;;;7389633;19;20550;-74
2023/10/16 02:11:08;;;;;;;1.27;0.93;;;9.20;99.90;;;;;;7390252;19;20134;-72
2023/10/16 02:13:36;;;;;;;0.50;0.50;;;9.20;99.90;;;;;;7390300;19;20143;-73
2023/10/16 02:16:06;;;;;;;0.40;0.40;;;9.20;99.90;;;;;;7388874;19;20134;-74
2023/10/16 02:18:40;;;;;;;0.80;0.70;;;9.20;99.90;;;;;;7389378;19;20198;-73
2023/10/16 02:21:11;;;;;;;1.40;1.03;;;9.10;99.90;;;;;;7388846;19;20142;-73
2023/10/16 02:23:46;;;;;;;0.60;0.60;;;9.10;99.90;;;;;;7388036;19;20521;-74
2023/10/16 02:26:12;;;;;;;1.03;0.90;;;8.70;99.90;;;;;;7392879;19;20234;-74
2023/10/16 02:28:41;;;;;;;1.40;1.27;;;8.00;99.90;;;;;;7383713;19;20151;-73
2023/10/16 02:31:10;;;;;;;1.17;0.60;;;8.40;99.90;;;;;;7391106;19;20137;-72
2023/10/16 02:33:37;;;;;;;0.53;0.53;;;8.70;99.90;;;;;;7389934;19;20130;-73
2023/10/16 02:36:03;;;;;;;0.77;0.73;;;8.40;99.90;;;;;;7389693;19;20134;-74
2023/10/16 02:38:29;;;;;;;0.57;0.57;;;8.30;99.90;;;;;;7392340;19;20126;-73
2023/10/16 02:41:07;;;;;;;2.13;1.20;;;8.50;99.90;;;;;;7389795;19;20139;-74
2023/10/16 02:43:41;;;;;;;0.80;0.70;;;7.90;99.90;;;;;;7386915;19;20174;-72
2023/10/16 02:46:10;;;;;;;1.10;0.93;;;7.60;99.90;;;;;;7387187;19;20166;-72
2023/10/16 02:48:35;;;;;;;0.77;0.63;;;7.20;99.90;;;;;;7387956;19;20138;-72
2023/10/16 02:51:02;;;;;;;1.13;0.63;;;7.30;99.90;;;;;;7389984;19;20584;-73
2023/10/16 02:53:30;;;;;;;0.57;0.50;;;7.30;99.90;;;;;;7388061;19;20143;-73
2023/10/16 02:55:58;;;;;;;1.13;0.80;;;7.70;99.90;;;;;;7391777;19;20141;-72
2023/10/16 02:58:28;;;;;;;0.40;0.40;;;7.80;99.90;;;;;;7391866;19;20135;-73
2023/10/16 03:00:59;;;;;;;0.83;0.70;;;8.00;99.90;;;;;;7389684;19;20158;-72
2023/10/16 03:03:28;;;;;;;0.97;0.60;;;7.60;99.90;;;;;;7391441;19;20135;-73
2023/10/16 03:05:55;;;;;;;0.53;0.53;;;6.90;99.90;;;;;;7387079;19;20182;-73
2023/10/16 03:08:30;;;;;;;0.73;0.73;;;7.10;99.90;;;;;;7392361;19;20444;-73
2023/10/16 03:11:05;;;;;;;0.80;0.80;;;7.60;99.90;;;;;;7390366;19;20146;-73
2023/10/16 03:13:35;;;;;;;1.20;1.10;;;7.40;99.90;;;;;;7389982;19;20170;-72
2023/10/16 03:16:10;;;;;;;0.60;0.60;;;7.00;99.90;;;;;;7390787;19;20138;-73
2023/10/16 03:18:42;;;;;;;0.70;0.67;;;6.90;99.90;;;;;;7386797;19;20600;-73
2023/10/16 03:23:43;;;;;;;1.20;1.00;;;7.60;99.90;;;;;;7388016;19;20583;-73
2023/10/16 03:26:18;;;;;;;0.73;0.70;;;6.60;99.90;;;;;;7391378;19;20154;-72
2023/10/16 03:28:44;;;;;;;0.80;0.80;;;6.10;99.90;;;;;;7389679;19;20142;-73
2023/10/16 03:31:11;;;;;;;2.33;0.70;;;6.20;99.90;;;;;;7384503;19;20219;-73
2023/10/16 03:33:38;;;;;;;0.70;0.70;;;6.20;99.90;;;;;;7389258;19;20146;-73
2023/10/16 03:36:04;;;;;;;0.73;0.60;;;6.20;99.90;;;;;;7388775;19;20210;-73
2023/10/16 03:38:37;;;;;;;0.73;0.73;;;6.70;99.90;;;;;;7389706;19;20135;-72
2023/10/16 03:41:31;;;;;;;0.47;0.47;;;7.20;99.90;;;;;;7389996;19;20537;-72
2023/10/16 03:44:06;;;;;;;0.93;0.57;;;7.30;99.90;;;;;;7385502;19;20615;-73
2023/10/16 03:46:34;;;;;;;0.93;0.83;;;7.30;99.90;;;;;;7391418;19;20146;-72
2023/10/16 03:49:00;;;;;;;0.67;0.60;;;7.00;99.90;;;;;;7394439;19;20141;-72
2023/10/16 03:51:26;;;;;;;0.57;0.57;;;6.80;99.90;;;;;;7396331;19;20198;-72
2023/10/16 03:53:56;;;;;;;1.10;0.73;;;7.10;99.90;;;;;;7395263;19;20150;-74
2023/10/16 03:56:24;;;;;;;0.83;0.80;;;7.20;99.90;;;;;;7396892;19;20169;-72
2023/10/16 03:58:53;;;;;;;1.60;0.87;;;6.70;99.90;;;;;;7395710;19;20143;-73
2023/10/16 04:01:27;;;;;;;3.20;0.73;;;6.60;99.90;;;;;;7398144;19;20142;-73
2023/10/16 04:03:56;;;;;;;2.37;0.87;;;6.20;99.90;;;;;;7394797;19;20138;-72
2023/10/16 04:06:26;;;;;;;1.13;0.83;;;6.10;99.90;;;;;;7390535;19;20154;-73
2023/10/16 04:08:59;;;;;;;0.50;0.50;;;6.00;99.90;;;;;;7395985;19;20549;-72
2023/10/16 04:11:25;;;;;;;0.57;0.57;;;6.10;99.90;;;;;;7394816;19;20154;-72
2023/10/16 04:13:54;;;;;;;0.70;0.60;;;5.90;99.90;;;;;;7393938;19;20167;-73
2023/10/16 04:16:43;;;;;;;0.63;0.60;;;6.00;99.90;;;;;;7395215;19;20126;-74
2023/10/16 04:21:40;;;;;;;1.93;0.90;;;6.30;99.90;;;;;;7395601;19;20490;-73
2023/10/16 04:29:34;;;;;;;1.17;0.53;;;7.20;99.90;;;;;;7396660;19;20231;-73
2023/10/16 04:34:31;;;;;;;1.83;1.73;;;6.70;99.90;;;;;;7394498;19;20154;-73
2023/10/16 04:53:08;;;;;;;0.60;0.60;;;7.30;99.90;;;;;;7393127;19;20142;-73
2023/10/16 05:00:56;;;;;;;0.67;0.60;;;8.10;99.90;;;;;;7394675;19;20127;-72
2023/10/16 05:03:44;;;;;;;0.73;0.70;;;8.10;99.90;;;;;;7392883;19;20150;-72
2023/10/16 06:16:28;;;;;;;0.70;0.70;;;7.20;99.90;;;;;;7392338;19;20210;-69
2023/10/16 06:18:54;;;;;;;0.67;0.63;;;6.60;99.90;;;;;;7389737;19;20139;-71
2023/10/16 06:21:19;;;;;;;1.43;1.00;;;6.50;99.90;;;;;;7390237;19;20146;-72
2023/10/16 06:23:48;;;;;;;1.37;1.07;;;6.40;99.90;;;;;;7389127;19;20146;-70
2023/10/16 06:26:18;;;;;;;1.10;0.90;;;6.50;99.90;;;;;;7389728;19;20511;-72
2023/10/16 06:28:47;;;;;;;1.83;1.20;;;6.80;99.90;;;;;;7388837;19;20154;-72
2023/10/16 06:31:22;;;;;;;0.77;0.77;;;7.00;99.90;;;;;;7390992;19;20936;-71
2023/10/16 06:33:58;;;;;;;1.27;0.60;;;7.60;99.90;;;;;;7390943;19;20618;-73
2023/10/16 06:36:24;;;;;;;1.03;0.80;;;8.10;99.90;;;;;;7390774;19;20142;-73
2023/10/16 06:38:51;;;;;;;1.53;1.03;;;8.20;99.90;;;;;;7389456;19;20145;-73
2023/10/16 06:41:21;;;;;;;2.07;0.83;;;8.40;99.90;;;;;;7390003;19;20139;-70
2023/10/16 06:43:50;;;;;;;1.50;1.13;;;8.50;99.90;;;;;;7387701;19;20190;-72
2023/10/16 06:46:22;;;;;;;0.73;0.73;;;8.50;99.90;;;;;;7392643;19;20479;-71
2023/10/16 06:48:50;;;;;;;1.57;1.00;;;8.40;99.90;;;;;;7389654;19;20142;-73
2023/10/16 06:51:16;;;;;;;2.07;1.10;;;8.40;99.90;;;;;;7390152;19;20150;-72
2023/10/16 06:53:44;;;;;;;0.80;0.77;;;8.40;99.90;;;;;;7389140;19;20138;-72
2023/10/16 06:56:14;;;;;;;1.33;0.90;;;8.50;99.90;;;;;;7390793;19;20255;-73
2023/10/16 06:58:40;;;;;;;1.57;1.07;;;8.50;99.90;;;;;;7390515;19;20154;-72
2023/10/16 07:01:06;;;;;;;0.53;0.53;;;8.50;99.90;;;;;;7390671;19;20254;-73
2023/10/16 07:03:39;;;;;;;1.10;1.00;;;8.60;99.90;;;;;;7388890;19;20144;-73
2023/10/16 07:06:05;;;;;;;1.10;0.90;;;8.60;99.90;;;;;;7388809;19;20160;-73
2023/10/16 07:08:33;;;;;;;0.70;0.70;;;8.70;99.90;;;;;;7391922;19;20198;-71
2023/10/16 07:11:03;;;;;;;2.23;1.20;;;7.70;99.90;;;;;;7388212;19;20482;-72
2023/10/16 07:13:31;;;;;;;1.07;0.87;;;7.10;99.90;;;;;;7388306;19;20207;-72
2023/10/16 07:16:02;;;;;;;0.67;0.67;;;7.10;99.90;;;;;;7385231;19;20142;-72
2023/10/16 07:18:33;;;;;;;0.80;0.80;;;7.20;99.90;;;;;;7385804;19;20138;-72
2023/10/16 07:20:59;;;;;;;0.70;0.70;;;7.80;99.90;;;;;;7390427;19;22048;-72
2023/10/16 07:23:29;;;;;;;1.00;0.90;;;8.20;99.90;;;;;;7396430;19;20134;-72
2023/10/16 07:25:58;;;;;;;2.07;1.23;;;8.40;99.90;;;;;;7395164;19;20141;-73
2023/10/16 07:28:26;;;;;;;1.37;1.23;;;8.50;99.90;;;;;;7398766;19;20115;-72
2023/10/16 07:30:52;;;;;;;0.77;0.77;;;8.60;99.90;;;;;;7395430;19;20135;-72
2023/10/16 07:33:20;;;;;;;1.77;1.10;;;8.60;99.90;;;;;;7398200;19;20127;-71
2023/10/16 07:35:51;;;;;;;2.53;1.07;;;8.80;99.90;;;;;;7395904;19;20137;-72
2023/10/16 07:38:19;;;;;;;1.23;0.93;;;8.80;99.90;;;;;;7396320;19;20134;-73
2023/10/16 07:40:52;;;;;;;1.30;1.07;;;8.70;99.90;;;;;;7397732;19;20130;-72
2023/10/16 07:43:29;;;;;;;1.00;0.87;;;8.70;99.90;;;;;;7393227;19;20155;-71
2023/10/16 07:46:27;;;;;;;0.97;0.87;;;8.60;99.90;;;;;;7396488;19;20189;-72
2023/10/16 07:48:53;;;;;;;1.27;1.07;;;8.60;99.90;;;;;;7395473;19;20141;-71
2023/10/16 07:51:20;;;;;;;0.50;0.50;;;8.70;99.90;;;;;;7396119;19;20583;-72
2023/10/16 07:53:50;;;;;;;1.07;0.90;;;8.60;99.90;;;;;;7395739;19;20198;-72
2023/10/16 07:56:19;;;;;;;2.47;1.07;;;8.70;99.90;;;;;;7397207;19;20155;-72
2023/10/16 07:58:49;;;;;;;0.60;0.60;;;8.90;99.90;;;;;;7393792;19;20902;-71
2023/10/16 08:01:32;;;;;;;0.93;0.87;;;8.90;99.90;;;;;;7398978;19;20130;-72
2023/10/16 08:03:58;;;;;;;1.33;0.93;;;8.90;99.90;;;;;;7396123;19;20134;-72
2023/10/16 08:06:28;;;;;;;2.70;1.20;;;9.00;99.90;;;;;;7391332;19;20155;-71
2023/10/16 08:09:48;;;;;;;1.20;0.93;;;8.90;99.90;;;;;;7395532;19;20142;-71
2023/10/16 08:11:42;;;;;;;0.80;0.80;;;8.90;99.90;;;;;;7393453;19;20225;-72
2023/10/16 08:14:09;;;;;;;1.10;1.00;;;8.90;99.90;;;;;;7397244;19;20131;-71
2023/10/16 08:16:35;;;;;;;0.87;0.83;;;8.90;99.90;;;;;;7394833;19;20167;-72
2023/10/16 08:19:01;;;;;;;1.13;0.90;;;8.90;99.90;;;;;;7396519;19;20214;-72
2023/10/16 08:21:26;;;;;;;2.13;1.40;;;8.90;99.90;;;;;;7395558;19;20609;-73
2023/10/16 08:23:54;;;;;;;3.47;1.10;;;8.80;99.90;;;;;;7394843;19;20134;-73
2023/10/16 08:26:41;;;;;;;1.30;0.83;;;8.90;99.90;;;;;;7395396;19;20161;-73
2023/10/16 08:31:44;;;;;;;0.70;0.70;;;9.10;99.90;;;;;;7394284;19;20474;-71
2023/10/16 08:34:13;;;;;;;0.87;0.87;;;9.10;99.90;;;;;;7394407;19;20675;-71
2023/10/16 08:36:41;;;;;;;1.20;1.10;;;9.30;99.90;;;;;;7395038;19;20154;-72
2023/10/16 08:39:09;;;;;;;1.50;1.37;;;9.30;99.90;;;;;;7396253;19;20492;-72
2023/10/16 08:41:42;;;;;;;1.57;1.47;;;9.40;99.90;;;;;;7391574;19;20983;-72
2023/10/16 08:44:15;;;;;;;1.00;0.90;;;9.40;99.90;;;;;;7393473;19;20165;-73
2023/10/16 08:47:15;;;;;;;1.07;0.83;;;9.50;99.90;;;;;;7394995;19;20143;-71
2023/10/16 08:49:40;;;;;;;0.73;0.73;;;9.50;99.90;;;;;;7394150;19;20683;-71
2023/10/16 08:52:10;;;;;;;1.47;0.93;;;9.50;99.90;;;;;;7392452;19;20683;-73
2023/10/16 08:57:19;;;;;;;2.37;1.17;;;9.70;99.90;;;;;;7393056;19;20168;-72
2023/10/16 08:59:49;;;;;;;2.07;1.10;;;9.70;99.90;;;;;;7393111;19;20620;-73
2023/10/16 09:02:17;;;;;;;3.17;1.60;;;9.80;99.90;;;;;;7395426;19;20477;-72
2023/10/16 09:04:44;;;;;;;1.30;1.17;;;9.90;99.90;;;;;;7390394;19;20144;-73
2023/10/16 09:07:16;;;;;;;2.67;1.43;;;9.90;99.90;;;;;;7393929;19;20524;-71
2023/10/16 09:09:44;;;;;;;1.20;1.07;;;10.10;99.90;;;;;;7391941;19;20603;-71
2023/10/16 09:12:12;;;;;;;2.57;1.77;;;10.30;99.90;;;;;;7394591;19;20146;-72
2023/10/16 09:14:40;;;;;;;1.17;1.00;;;10.30;99.90;;;;;;7393228;19;20154;-71
2023/10/16 09:17:07;;;;;;;1.73;1.30;;;10.30;99.90;;;;;;7392980;19;20138;-72
2023/10/16 09:19:45;;;;;;;1.23;0.93;;;10.30;99.90;;;;;;7393979;19;20143;-72
2023/10/16 09:22:13;;;;;;;2.27;1.27;;;10.20;99.90;;;;;;7392682;19;20656;-72
2023/10/16 09:24:45;;;;;;;2.87;1.00;;;10.20;99.90;;;;;;7390920;19;20176;-73
2023/10/16 09:27:30;;;;;;;1.30;1.20;;;10.20;99.90;;;;;;7393182;19;20602;-72
2023/10/16 09:30:00;;;;;;;1.53;1.40;;;10.30;99.90;;;;;;7392445;19;20134;-72
2023/10/16 09:32:39;;;;;;;2.40;1.10;;;10.40;99.90;;;;;;7393651;19;20139;-73
2023/10/16 09:35:12;;;;;;;1.80;1.50;;;10.50;99.90;;;;;;7391339;19;20155;-71
2023/10/16 09:37:39;;;;;;;1.30;1.20;;;10.50;99.90;;;;;;7394971;19;20130;-71
2023/10/16 09:40:18;;;;;;;0.80;0.80;;;10.50;99.90;;;;;;7389939;19;20529;-72
2023/10/16 09:42:56;;;;;;;1.10;1.00;;;10.50;99.90;;;;;;7389402;19;20158;-73
2023/10/16 09:45:23;;;;;;;0.87;0.87;;;10.60;99.90;;;;;;7392808;19;20138;-72
2023/10/16 09:47:51;;;;;;;1.23;1.13;;;10.80;99.90;;;;;;7392623;19;20262;-72
2023/10/16 09:50:20;;;;;;;1.87;1.27;;;10.90;99.90;;;;;;7392639;19;20244;-72
2023/10/16 09:52:49;;;;;;;1.27;0.70;;;11.10;99.90;;;;;;7390569;19;20178;-73
2023/10/16 09:55:18;;;;;;;0.93;0.87;;;11.20;99.90;;;;;;7392487;19;20155;-72
2023/10/16 09:57:54;;;;;;;1.00;0.90;;;11.20;99.90;;;;;;7391793;19;20139;-72
2023/10/16 10:03:09;;;;;;;1.30;1.17;;;11.40;99.90;;;;;;7392565;19;20216;-71
2023/10/16 10:06:06;;;;;;;0.80;0.80;;;11.60;99.90;;;;;;7395859;19;20514;-72
2023/10/16 10:12:08;;;;;;;0.70;0.70;;;11.70;99.90;;;;;;7386746;19;20154;-73
2023/10/16 10:14:48;;;;;;;0.93;0.80;;;11.60;99.90;;;;;;7391675;19;20127;-72
2023/10/16 10:17:19;;;;;;;1.20;0.80;;;11.50;99.90;;;;;;7391378;19;20460;-72
2023/10/16 10:19:54;;;;;;;1.20;1.10;;;11.60;99.90;;;;;;7392847;19;20135;-71
2023/10/16 10:22:27;;;;;;;0.90;0.80;;;11.70;99.90;;;;;;7389679;19;20221;-72
2023/10/16 10:25:17;;;;;;;0.50;0.50;;;11.80;99.90;;;;;;7387602;19;20511;-72
2023/10/16 10:27:44;;;;;;;0.90;0.83;;;11.90;99.90;;;;;;7389098;19;20163;-72
2023/10/16 10:30:17;;;;;;;0.57;0.43;;;12.00;99.90;;;;;;7390182;19;20201;-73
2023/10/16 10:32:50;;;;;;;0.77;0.77;;;12.10;99.90;;;;;;7389996;19;20221;-73
2023/10/16 10:35:30;;;;;;;0.87;0.80;;;12.20;99.90;;;;;;7390584;19;20138;-73
2023/10/16 10:38:17;;;;;;;1.00;0.90;;;12.30;99.90;;;;;;7389943;19;20137;-71
2023/10/16 10:41:12;;;;;;;0.70;0.70;;;12.10;99.90;;;;;;7392091;19;20162;-73
2023/10/16 10:43:50;;;;;;;1.13;0.85;;;12.20;99.90;;;;;;7389389;19;20155;-72
2023/10/16 10:46:24;;;;;;;0.90;0.60;;;12.10;99.90;;;;;;7391704;19;20134;-72
2023/10/16 10:48:50;;;;;;;1.93;0.77;;;12.30;99.90;;;;;;7389333;19;20129;-72
2023/10/16 10:51:16;;;;;;;0.80;0.53;;;12.30;99.90;;;;;;7390830;19;20521;-72
2023/10/16 10:53:55;;;;;;;0.90;0.87;;;12.50;99.90;;;;;;7388802;19;20173;-73
2023/10/16 10:56:21;;;;;;;0.45;0.45;;;12.70;99.90;;;;;;7389359;19;20205;-72
2023/10/16 10:58:47;;;;;;;0.50;0.50;;;12.80;99.90;;;;;;7388563;19;20173;-73
2023/10/16 11:01:16;;;;;;;1.10;1.00;;;12.90;99.90;;;;;;7389792;19;20151;-72
2023/10/16 11:03:45;;;;;;;0.68;0.68;;;12.80;99.90;;;;;;7387960;19;20161;-73
2023/10/16 11:06:38;;;;;;;1.35;0.80;;;12.70;99.90;;;;;;7388996;19;20178;-73
2023/10/16 11:09:18;;;;;;;0.97;0.83;;;12.80;99.90;;;;;;7389940;19;20131;-72
2023/10/16 11:11:46;;;;;;;1.60;1.00;;;12.80;99.90;;;;;;7390470;19;20153;-73
2023/10/16 11:14:12;;;;;;;0.87;0.87;;;12.80;99.90;;;;;;7389783;19;20218;-72
2023/10/16 11:16:42;;;;;;;0.77;0.77;;;12.80;99.90;;;;;;7387013;19;20153;-72
2023/10/16 11:19:09;;;;;;;0.88;0.52;;;12.90;99.90;;;;;;7388588;19;20226;-73
2023/10/16 11:21:43;;;;;;;0.80;0.70;;;13.10;99.90;;;;;;7388603;19;20138;-73
2023/10/16 11:24:10;;;;;;;0.63;0.63;;;13.10;99.90;;;;;;7386190;19;20153;-72
2023/10/16 11:26:38;;;;;;;1.05;0.98;;;13.10;99.90;;;;;;7388703;19;20131;-72
2023/10/16 11:29:04;;;;;;;0.88;0.70;;;13.20;99.90;;;;;;7389018;19;20135;-73
2023/10/16 11:31:30;;;;;;;0.77;0.77;;;13.30;99.90;;;;;;7389823;19;20165;-72
2023/10/16 11:34:00;;;;;;;1.30;0.60;;;13.30;99.90;;;;;;7389179;19;20147;-72
2023/10/16 11:36:28;;;;;;;0.40;0.40;;;13.30;99.90;;;;;;7388124;19;20159;-73
2023/10/16 11:38:59;;;;;;;0.32;0.30;;;13.40;99.90;;;;;;7392516;19;20580;-74
2023/10/16 11:41:26;;;;;;;0.88;0.57;;;13.50;99.90;;;;;;7388819;19;20158;-72
2023/10/16 11:43:53;;;;;;;0.43;0.40;;;13.40;99.90;;;;;;7387564;19;20746;-72
2023/10/16 11:46:44;;;;;;;0.95;0.70;;;13.60;99.90;;;;;;7388570;19;20143;-73
2023/10/16 11:51:51;;;;;;;0.43;0.35;;;13.80;99.90;;;;;;7390188;19;20139;-72
2023/10/16 11:54:21;;;;;;;0.73;0.70;;;13.70;99.90;;;;;;7389204;19;20157;-73
2023/10/16 11:56:48;;;;;;;0.50;0.40;;;13.70;99.90;;;;;;7385528;19;20221;-72
2023/10/16 11:59:19;;;;;;;1.08;0.57;;;13.60;99.90;;;;;;7390595;19;20147;-73
2023/10/16 12:01:45;;;;;;;0.40;0.40;;;13.80;99.90;;;;;;7386993;19;20561;-73
2023/10/16 12:04:11;;;;;;;0.47;0.47;;;13.90;99.90;;;;;;7387349;19;20168;-72
2023/10/16 12:06:39;;;;;;;0.60;0.60;;;14.00;99.90;;;;;;7385895;19;20143;-73
2023/10/16 12:09:13;;;;;;;0.50;0.40;;;13.90;99.90;;;;;;7397451;19;20161;-72
2023/10/16 12:11:42;;;;;;;0.40;0.40;;;13.80;99.90;;;;;;7394764;19;20161;-72
2023/10/16 12:14:13;;;;;;;1.10;0.90;;;13.80;99.90;;;;;;7395153;19;20250;-72
2023/10/16 12:16:48;;;;;;;0.40;0.40;;;13.90;99.90;;;;;;7396344;19;20131;-73
2023/10/16 12:19:15;;;;;;;0.40;0.40;;;13.90;99.90;;;;;;7394534;19;20181;-74
2023/10/16 12:21:42;;;;;;;0.45;0.43;;;13.90;99.90;;;;;;7397043;19;20126;-71
2023/10/16 12:24:11;;;;;;;0.63;0.40;;;14.00;99.90;;;;;;7391627;19;20147;-73
2023/10/16 12:26:41;;;;;;;0.40;0.40;;;14.00;99.90;;;;;;7392883;19;20534;-72
2023/10/16 12:29:08;;;;;;;0.60;0.43;;;14.00;99.90;;;;;;7396754;19;20618;-73
2023/10/16 12:31:35;;;;;;;0.77;0.63;;;14.10;99.90;;;;;;7393382;19;20130;-73
2023/10/16 12:34:01;;;;;;;0.40;0.38;;;14.20;99.90;;;;;;7395012;19;20146;-72
2023/10/16 12:36:27;;;;;;;0.60;0.57;;;14.10;99.90;;;;;;7394822;19;20468;-72
2023/10/16 12:38:55;;;;;;;0.60;0.43;;;14.30;99.90;;;;;;7395199;19;20146;-72
2023/10/16 12:41:24;;;;;;;0.40;0.40;;;14.50;99.90;;;;;;7394572;19;20134;-73
2023/10/16 12:43:50;;;;;;;1.15;0.75;;;14.50;99.90;;;;;;7394617;19;20187;-72
2023/10/16 12:46:16;;;;;;;0.45;0.45;;;14.10;99.90;;;;;;7393256;19;20143;-73
2023/10/16 12:48:44;;;;;;;0.55;0.55;;;14.30;99.90;;;;;;7394967;19;20146;-72
2023/10/16 12:51:10;;;;;;;0.60;0.60;;;14.40;99.90;;;;;;7394792;19;20159;-73
2023/10/16 12:53:41;;;;;;;0.75;0.60;;;14.30;99.90;;;;;;7391983;19;20162;-73
2023/10/16 12:56:07;;;;;;;0.93;0.60;;;14.30;99.90;;;;;;7392898;19;20510;-73
2023/10/16 12:58:33;;;;;;;0.40;0.40;;;14.40;99.90;;;;;;7393084;19;20153;-73
2023/10/16 13:01:02;;;;;;;0.47;0.47;;;14.30;99.90;;;;;;7392836;19;20146;-73
2023/10/16 13:03:27;;;;;;;0.40;0.40;;;14.20;99.90;;;;;;7395439;19;20141;-73
2023/10/16 13:05:53;;;;;;;0.50;0.50;;;14.30;99.90;;;;;;7391521;19;20434;-73
2023/10/16 13:08:22;;;;;;;0.63;0.55;;;14.30;99.90;;;;;;7395705;19;20158;-72
2023/10/16 13:10:52;;;;;;;0.60;0.43;;;14.30;99.90;;;;;;7392680;19;20166;-72
2023/10/16 13:13:21;;;;;;;0.50;0.50;;;14.40;99.90;;;;;;7394200;19;20467;-72
2023/10/16 13:15:51;;;;;;;0.75;0.65;;;14.50;99.90;;;;;;7393806;19;20569;-72
2023/10/16 13:18:27;;;;;;;0.38;0.38;;;14.60;99.90;;;;;;7392381;19;20236;-73
2023/10/16 13:21:15;;;;;;;0.55;0.55;;;14.60;99.90;;;;;;7390679;19;20833;-72
2023/10/16 13:23:41;;;;;;;0.30;0.30;;;14.70;99.90;;;;;;7392565;19;20462;-73
2023/10/16 13:26:08;;;;;;;0.40;0.40;;;14.80;99.90;;;;;;7393124;19;20141;-72
2023/10/16 13:28:41;;;;;;;0.85;0.60;;;14.80;99.90;;;;;;7387753;19;20253;-75
2023/10/16 13:31:08;;;;;;;0.40;0.40;;;14.70;99.90;;;;;;7390565;19;20165;-73
2023/10/16 13:33:41;;;;;;;0.95;0.50;;;14.60;99.90;;;;;;7390065;19;20154;-73
2023/10/16 13:36:11;;;;;;;0.32;0.32;;;14.50;99.90;;;;;;7389856;19;20142;-73
2023/10/16 13:38:37;;;;;;;0.80;0.50;;;14.70;99.90;;;;;;7387717;19;20154;-72
2023/10/16 13:41:07;;;;;;;0.38;0.38;;;14.60;99.90;;;;;;7392483;19;20149;-73
2023/10/16 13:43:32;;;;;;;0.40;0.40;;;14.70;99.90;;;;;;7383627;19;20154;-73
2023/10/16 13:45:58;;;;;;;0.90;0.90;;;14.70;99.90;;;;;;7391821;19;20138;-74
2023/10/16 13:48:28;;;;;;;0.47;0.47;;;14.70;99.90;;;;;;7390807;19;20153;-72
2023/10/16 13:50:54;;;;;;;0.65;0.65;;;14.70;99.90;;;;;;7392985;19;20118;-72
2023/10/16 13:53:20;;;;;;;0.50;0.50;;;14.80;99.90;;;;;;7385129;19;20153;-75
2023/10/16 13:55:52;;;;;;;0.40;0.40;;;14.80;99.90;;;;;;7389881;19;20130;-73
2023/10/16 13:58:19;;;;;;;0.40;0.40;;;14.80;99.60;;;;;;7388604;19;20155;-74
2023/10/16 14:00:47;;;;;;;0.50;0.40;;;14.70;99.90;;;;;;7391693;19;20142;-73
2023/10/16 14:05:47;;;;;;;0.40;0.35;;;14.60;99.30;;;;;;7388793;19;20153;-73
2023/10/16 14:08:17;;;;;;;0.68;0.57;;;14.50;99.90;;;;;;7390549;19;20684;-73
2023/10/16 14:10:49;;;;;;;0.50;0.50;;;14.50;99.50;;;;;;7391681;19;20158;-75
2023/10/16 14:13:26;;;;;;;0.65;0.65;;;14.60;99.90;;;;;;7392149;19;20147;-74
2023/10/16 14:15:58;;;;;;;0.30;0.30;;;14.70;99.90;;;;;;7391087;19;20135;-72
2023/10/16 14:18:29;;;;;;;0.40;0.38;;;14.60;99.90;;;;;;7391392;19;20130;-73
2023/10/16 14:20:56;;;;;;;0.63;0.43;;;14.60;99.40;;;;;;7389386;19;20911;-73
2023/10/16 14:23:40;;;;;;;0.65;0.50;;;14.50;99.80;;;;;;7391413;19;20157;-74
2023/10/16 14:26:21;;;;;;;0.50;0.50;;;14.60;99.00;;;;;;7392909;19;20150;-73
2023/10/16 14:28:51;;;;;;;0.40;0.40;;;14.50;99.00;;;;;;7392204;19;20135;-72
2023/10/16 14:31:20;;;;;;;0.40;0.40;;;14.30;99.40;;;;;;7384313;19;20146;-73
2023/10/16 14:33:49;;;;;;;0.65;0.57;;;14.40;99.20;;;;;;7388964;19;20198;-74
2023/10/16 14:36:18;;;;;;;0.30;0.30;;;14.40;99.40;;;;;;7387613;19;20772;-73
2023/10/16 14:38:44;;;;;;;0.43;0.40;;;14.40;99.20;;;;;;7389663;19;20162;-73
2023/10/16 14:41:17;;;;;;;0.80;0.52;;;14.50;98.60;;;;;;7391142;19;20575;-74
2023/10/16 14:43:46;;;;;;;0.77;0.60;;;14.60;98.70;;;;;;7389192;19;20206;-73
2023/10/16 14:46:13;;;;;;;0.60;0.57;;;14.50;99.00;;;;;;7387353;19;20162;-73
2023/10/16 14:48:42;;;;;;;1.20;0.65;;;14.40;99.30;;;;;;7389817;19;20147;-72
2023/10/16 14:51:15;;;;;;;0.50;0.50;;;14.40;99.40;;;;;;7388887;19;20154;-73
2023/10/16 14:53:45;;;;;;;0.50;0.40;;;14.30;99.60;;;;;;7388399;19;20150;-73
2023/10/16 14:56:18;;;;;;;0.40;0.40;;;14.30;99.60;;;;;;7390033;19;20634;-74
2023/10/16 14:58:45;;;;;;;0.38;0.35;;;14.30;99.90;;;;;;7387841;19;20173;-73
2023/10/16 15:01:19;;;;;;;0.30;0.30;;;14.30;99.30;;;;;;7387499;19;20157;-74
2023/10/16 15:03:50;;;;;;;0.80;0.60;;;14.30;99.50;;;;;;7387757;19;20154;-73
2023/10/16 15:06:16;;;;;;;0.55;0.50;;;14.30;99.50;;;;;;7385043;19;20165;-73
2023/10/16 15:08:43;;;;;;;0.40;0.40;;;14.20;99.90;;;;;;7388492;19;20127;-74
2023/10/16 15:11:12;;;;;;;0.40;0.40;;;14.20;99.90;;;;;;7389320;19;20208;-73
2023/10/16 15:13:39;;;;;;;0.32;0.32;;;14.20;99.90;;;;;;7388779;19;20146;-74